sensor_id;sensor_type;location;lat;lon;timestamp;temperature;humidity
76203;DHT22;64985;46.364;17.008;2023-07-13T00:01:56;19.60;99.90
76203;DHT22;64985;46.364;17.008;2023-07-13T00:05:17;19.50;99.90
76203;DHT22;64985;46.364;17.008;2023-07-13T00:08:19;19.50;99.90
76203;DHT22;64985;46.364;17.008;2023-07-13T00:11:21;19.40;99.90
76203;DHT22;64985;46.364;17.008;2023-07-13T00:14:25;19.40;99.90
76203;DHT22;64985;46.364;17.008;2023-07-13T00:17:28;19.30;99.90
76203;DHT22;64985;46.364;17.008;2023-07-13T00:20:30;19.30;99.90
76203;DHT22;64985;46.364;17.008;2023-07-13T00:23:38;19.20;99.90
76203;DHT22;64985;46.364;17.008;2023-07-13T00:26:41;19.00;99.90
76203;DHT22;64985;46.364;17.008;2023-07-13T00:29:48;19.00;99.90
76203;DHT22;64985;46.364;17.008;2023-07-13T00:32:50;18.90;99.90
76203;DHT22;64985;46.364;17.008;2023-07-13T00:36:05;19.00;99.90
76203;DHT22;64985;46.364;17.008;2023-07-13T00:39:07;18.90;99.90
76203;DHT22;64985;46.364;17.008;2023-07-13T00:42:10;18.80;99.90
76203;DHT22;64985;46.364;17.008;2023-07-13T00:48:18;18.70;99.90
76203;DHT22;64985;46.364;17.008;2023-07-13T00:51:27;18.70;99.90
76203;DHT22;64985;46.364;17.008;2023-07-13T00:54:43;18.70;99.90
76203;DHT22;64985;46.364;17.008;2023-07-13T00:57:46;18.70;99.90
76203;DHT22;64985;46.364;17.008;2023-07-13T01:00:49;18.60;99.90
76203;DHT22;64985;46.364;17.008;2023-07-13T01:03:52;18.50;99.90
76203;DHT22;64985;46.364;17.008;2023-07-13T01:06:56;18.50;99.90
76203;DHT22;64985;46.364;17.008;2023-07-13T01:09:59;18.60;99.90
76203;DHT22;64985;46.364;17.008;2023-07-13T01:13:01;18.50;99.90
76203;DHT22;64985;46.364;17.008;2023-07-13T01:16:15;18.50;99.90
76203;DHT22;64985;46.364;17.008;2023-07-13T01:22:38;18.50;99.90
76203;DHT22;64985;46.364;17.008;2023-07-13T01:25:40;18.50;99.90
76203;DHT22;64985;46.364;17.008;2023-07-13T01:28:43;18.50;99.90
76203;DHT22;64985;46.364;17.008;2023-07-13T01:31:45;18.50;99.90
76203;DHT22;64985;46.364;17.008;2023-07-13T01:34:47;18.50;99.90
76203;DHT22;64985;46.364;17.008;2023-07-13T01:37:49;18.50;99.90
76203;DHT22;64985;46.364;17.008;2023-07-13T01:40:52;18.50;99.90
76203;DHT22;64985;46.364;17.008;2023-07-13T01:43:54;18.50;99.90
76203;DHT22;64985;46.364;17.008;2023-07-13T01:46:57;18.40;99.90
76203;DHT22;64985;46.364;17.008;2023-07-13T01:49:59;18.40;99.90
76203;DHT22;64985;46.364;17.008;2023-07-13T01:53:02;18.40;99.90
76203;DHT22;64985;46.364;17.008;2023-07-13T01:56:04;18.30;99.90
76203;DHT22;64985;46.364;17.008;2023-07-13T01:59:07;18.40;99.90
76203;DHT22;64985;46.364;17.008;2023-07-13T02:02:09;18.50;99.90
76203;DHT22;64985;46.364;17.008;2023-07-13T02:05:12;18.50;99.90
76203;DHT22;64985;46.364;17.008;2023-07-13T02:08:14;18.50;99.90
76203;DHT22;64985;46.364;17.008;2023-07-13T02:11:16;18.50;99.90
76203;DHT22;64985;46.364;17.008;2023-07-13T02:14:19;18.50;99.90
76203;DHT22;64985;46.364;17.008;2023-07-13T02:17:21;18.50;99.90
76203;DHT22;64985;46.364;17.008;2023-07-13T02:20:24;18.50;99.90
76203;DHT22;64985;46.364;17.008;2023-07-13T02:23:26;18.50;99.90
76203;DHT22;64985;46.364;17.008;2023-07-13T02:26:28;18.50;99.90
76203;DHT22;64985;46.364;17.008;2023-07-13T02:29:30;18.50;99.90
76203;DHT22;64985;46.364;17.008;2023-07-13T02:32:33;18.50;99.90
76203;DHT22;64985;46.364;17.008;2023-07-13T02:35:35;18.50;99.90
76203;DHT22;64985;46.364;17.008;2023-07-13T02:38:37;18.50;99.90
76203;DHT22;64985;46.364;17.008;2023-07-13T02:41:40;18.50;99.90
76203;DHT22;64985;46.364;17.008;2023-07-13T02:44:42;18.50;99.90
76203;DHT22;64985;46.364;17.008;2023-07-13T02:47:44;18.40;99.90
76203;DHT22;64985;46.364;17.008;2023-07-13T02:50:47;18.40;99.90
76203;DHT22;64985;46.364;17.008;2023-07-13T02:53:49;18.50;99.90
76203;DHT22;64985;46.364;17.008;2023-07-13T06:57:00;21.40;99.90
76203;DHT22;64985;46.364;17.008;2023-07-13T07:00:03;22.20;99.90
76203;DHT22;64985;46.364;17.008;2023-07-13T07:03:05;22.00;99.90
76203;DHT22;64985;46.364;17.008;2023-07-13T07:06:16;22.30;99.90
76203;DHT22;64985;46.364;17.008;2023-07-13T07:09:18;22.70;99.90
76203;DHT22;64985;46.364;17.008;2023-07-13T07:12:21;23.10;99.90
76203;DHT22;64985;46.364;17.008;2023-07-13T07:15:23;23.30;99.90
76203;DHT22;64985;46.364;17.008;2023-07-13T07:18:25;23.80;99.90
76203;DHT22;64985;46.364;17.008;2023-07-13T07:21:28;24.70;99.90
76203;DHT22;64985;46.364;17.008;2023-07-13T07:24:30;25.40;99.90
76203;DHT22;64985;46.364;17.008;2023-07-13T07:27:32;25.50;96.00
76203;DHT22;64985;46.364;17.008;2023-07-13T07:30:42;24.90;98.30
76203;DHT22;64985;46.364;17.008;2023-07-13T07:33:47;24.60;95.00
76203;DHT22;64985;46.364;17.008;2023-07-13T07:36:52;24.60;97.70
76203;DHT22;64985;46.364;17.008;2023-07-13T07:39:57;24.40;98.30
76203;DHT22;64985;46.364;17.008;2023-07-13T07:43:03;24.10;99.90
76203;DHT22;64985;46.364;17.008;2023-07-13T07:46:06;24.40;99.90
76203;DHT22;64985;46.364;17.008;2023-07-13T07:49:08;24.30;99.90
76203;DHT22;64985;46.364;17.008;2023-07-13T07:52:10;24.30;99.90
76203;DHT22;64985;46.364;17.008;2023-07-13T07:55:12;24.50;99.90
76203;DHT22;64985;46.364;17.008;2023-07-13T07:58:17;24.80;99.90
76203;DHT22;64985;46.364;17.008;2023-07-13T08:01:39;25.10;99.90
76203;DHT22;64985;46.364;17.008;2023-07-13T08:05:01;25.10;99.90
76203;DHT22;64985;46.364;17.008;2023-07-13T08:08:06;25.00;97.70
76203;DHT22;64985;46.364;17.008;2023-07-13T08:11:09;25.40;99.10
76203;DHT22;64985;46.364;17.008;2023-07-13T08:14:14;25.60;95.40
76203;DHT22;64985;46.364;17.008;2023-07-13T08:17:16;25.90;99.90
76203;DHT22;64985;46.364;17.008;2023-07-13T08:20:18;26.70;94.80
76203;DHT22;64985;46.364;17.008;2023-07-13T08:23:20;26.90;88.20
76203;DHT22;64985;46.364;17.008;2023-07-13T08:26:22;26.50;92.20
76203;DHT22;64985;46.364;17.008;2023-07-13T08:29:24;26.10;90.90
76203;DHT22;64985;46.364;17.008;2023-07-13T08:32:26;26.10;91.30
76203;DHT22;64985;46.364;17.008;2023-07-13T08:35:29;26.30;93.40
76203;DHT22;64985;46.364;17.008;2023-07-13T08:38:31;26.30;90.60
76203;DHT22;64985;46.364;17.008;2023-07-13T08:41:33;26.10;92.20
76203;DHT22;64985;46.364;17.008;2023-07-13T08:48:28;25.40;95.90
76203;DHT22;64985;46.364;17.008;2023-07-13T08:54:41;25.30;95.30
76203;DHT22;64985;46.364;17.008;2023-07-13T08:57:48;25.80;94.40
76203;DHT22;64985;46.364;17.008;2023-07-13T09:00:57;26.00;94.30
76203;DHT22;64985;46.364;17.008;2023-07-13T09:04:07;25.80;92.10
76203;DHT22;64985;46.364;17.008;2023-07-13T09:10:43;26.00;91.10
76203;DHT22;64985;46.364;17.008;2023-07-13T09:13:56;25.90;94.80
76203;DHT22;64985;46.364;17.008;2023-07-13T09:17:05;26.00;91.80
76203;DHT22;64985;46.364;17.008;2023-07-13T09:20:30;26.20;92.40
76203;DHT22;64985;46.364;17.008;2023-07-13T09:23:35;26.80;94.30
76203;DHT22;64985;46.364;17.008;2023-07-13T09:26:38;27.60;91.30
76203;DHT22;64985;46.364;17.008;2023-07-13T09:29:42;27.70;83.80
76203;DHT22;64985;46.364;17.008;2023-07-13T09:32:51;27.70;85.60
76203;DHT22;64985;46.364;17.008;2023-07-13T09:35:53;27.30;83.20
76203;DHT22;64985;46.364;17.008;2023-07-13T09:42:17;27.90;84.30
76203;DHT22;64985;46.364;17.008;2023-07-13T09:45:30;28.40;82.60
76203;DHT22;64985;46.364;17.008;2023-07-13T09:48:36;29.10;82.30
76203;DHT22;64985;46.364;17.008;2023-07-13T09:51:41;29.10;81.10
76203;DHT22;64985;46.364;17.008;2023-07-13T09:54:48;29.30;72.50
76203;DHT22;64985;46.364;17.008;2023-07-13T09:57:51;29.40;82.50
76203;DHT22;64985;46.364;17.008;2023-07-13T10:01:00;29.50;76.80
76203;DHT22;64985;46.364;17.008;2023-07-13T10:04:14;29.40;76.50
76203;DHT22;64985;46.364;17.008;2023-07-13T10:07:22;29.70;74.30
76203;DHT22;64985;46.364;17.008;2023-07-13T10:10:31;29.60;73.60
76203;DHT22;64985;46.364;17.008;2023-07-13T10:13:44;30.10;75.80
76203;DHT22;64985;46.364;17.008;2023-07-13T10:16:49;30.20;66.30
76203;DHT22;64985;46.364;17.008;2023-07-13T10:19:53;30.60;67.70
76203;DHT22;64985;46.364;17.008;2023-07-13T10:23:05;30.70;66.60
76203;DHT22;64985;46.364;17.008;2023-07-13T10:26:23;30.40;68.10
76203;DHT22;64985;46.364;17.008;2023-07-13T10:29:28;30.40;69.00
76203;DHT22;64985;46.364;17.008;2023-07-13T10:32:33;30.50;66.50
76203;DHT22;64985;46.364;17.008;2023-07-13T10:35:35;31.20;68.50
76203;DHT22;64985;46.364;17.008;2023-07-13T10:38:38;31.00;64.10
76203;DHT22;64985;46.364;17.008;2023-07-13T10:41:42;31.40;67.30
76203;DHT22;64985;46.364;17.008;2023-07-13T10:44:46;31.60;63.30
76203;DHT22;64985;46.364;17.008;2023-07-13T10:47:50;31.40;62.80
76203;DHT22;64985;46.364;17.008;2023-07-13T10:50:55;31.80;63.60
76203;DHT22;64985;46.364;17.008;2023-07-13T10:54:27;31.00;61.70
76203;DHT22;64985;46.364;17.008;2023-07-13T10:57:41;30.60;67.80
76203;DHT22;64985;46.364;17.008;2023-07-13T11:01:12;31.00;66.50
76203;DHT22;64985;46.364;17.008;2023-07-13T11:04:16;31.30;60.50
76203;DHT22;64985;46.364;17.008;2023-07-13T11:07:26;31.70;64.60
76203;DHT22;64985;46.364;17.008;2023-07-13T11:10:58;31.50;58.50
76203;DHT22;64985;46.364;17.008;2023-07-13T11:14:25;31.00;67.00
76203;DHT22;64985;46.364;17.008;2023-07-13T11:17:35;30.30;65.70
76203;DHT22;64985;46.364;17.008;2023-07-13T11:20:39;29.70;65.70
76203;DHT22;64985;46.364;17.008;2023-07-13T11:23:44;29.30;63.00
76203;DHT22;64985;46.364;17.008;2023-07-13T11:29:49;28.80;66.20
76203;DHT22;64985;46.364;17.008;2023-07-13T11:33:21;28.90;72.80
76203;DHT22;64985;46.364;17.008;2023-07-13T11:36:30;29.00;68.70
76203;DHT22;64985;46.364;17.008;2023-07-13T11:39:36;29.00;71.30
76203;DHT22;64985;46.364;17.008;2023-07-13T11:42:47;29.50;67.90
76203;DHT22;64985;46.364;17.008;2023-07-13T11:45:50;30.00;67.10
76203;DHT22;64985;46.364;17.008;2023-07-13T11:48:53;30.40;75.80
76203;DHT22;64985;46.364;17.008;2023-07-13T11:51:56;30.80;63.00
76203;DHT22;64985;46.364;17.008;2023-07-13T11:55:00;30.70;66.80
76203;DHT22;64985;46.364;17.008;2023-07-13T11:58:04;30.70;65.60
76203;DHT22;64985;46.364;17.008;2023-07-13T12:01:20;30.80;64.70
76203;DHT22;64985;46.364;17.008;2023-07-13T12:04:27;30.70;64.30
76203;DHT22;64985;46.364;17.008;2023-07-13T12:07:32;30.70;62.90
76203;DHT22;64985;46.364;17.008;2023-07-13T12:10:35;30.70;67.40
76203;DHT22;64985;46.364;17.008;2023-07-13T12:13:38;30.40;68.90
76203;DHT22;64985;46.364;17.008;2023-07-13T12:16:44;30.30;66.10
76203;DHT22;64985;46.364;17.008;2023-07-13T12:19:51;30.50;68.00
76203;DHT22;64985;46.364;17.008;2023-07-13T12:22:54;30.30;67.90
76203;DHT22;64985;46.364;17.008;2023-07-13T12:25:57;30.60;67.20
76203;DHT22;64985;46.364;17.008;2023-07-13T12:29:01;30.50;69.80
76203;DHT22;64985;46.364;17.008;2023-07-13T12:32:17;30.30;68.80
76203;DHT22;64985;46.364;17.008;2023-07-13T12:35:20;30.50;66.60
76203;DHT22;64985;46.364;17.008;2023-07-13T12:38:27;30.40;67.70
76203;DHT22;64985;46.364;17.008;2023-07-13T12:41:31;30.20;68.20
76203;DHT22;64985;46.364;17.008;2023-07-13T12:44:40;30.00;68.10
76203;DHT22;64985;46.364;17.008;2023-07-13T12:47:47;30.40;70.60
76203;DHT22;64985;46.364;17.008;2023-07-13T12:50:53;30.50;69.80
76203;DHT22;64985;46.364;17.008;2023-07-13T12:54:05;30.70;68.40
76203;DHT22;64985;46.364;17.008;2023-07-13T12:57:15;30.50;66.50
76203;DHT22;64985;46.364;17.008;2023-07-13T13:03:35;29.60;70.10
76203;DHT22;64985;46.364;17.008;2023-07-13T13:06:38;29.30;71.50
76203;DHT22;64985;46.364;17.008;2023-07-13T13:09:42;29.20;74.30
76203;DHT22;64985;46.364;17.008;2023-07-13T13:12:45;28.90;70.50
76203;DHT22;64985;46.364;17.008;2023-07-13T13:15:47;28.50;76.40
76203;DHT22;64985;46.364;17.008;2023-07-13T13:18:50;28.00;80.20
76203;DHT22;64985;46.364;17.008;2023-07-13T13:21:54;27.70;86.10
76203;DHT22;64985;46.364;17.008;2023-07-13T13:24:58;27.20;83.90
76203;DHT22;64985;46.364;17.008;2023-07-13T13:28:01;26.90;89.30
76203;DHT22;64985;46.364;17.008;2023-07-13T13:31:03;26.40;90.20
76203;DHT22;64985;46.364;17.008;2023-07-13T13:34:09;26.30;88.30
76203;DHT22;64985;46.364;17.008;2023-07-13T13:37:22;26.40;90.70
76203;DHT22;64985;46.364;17.008;2023-07-13T13:40:24;26.50;91.10
76203;DHT22;64985;46.364;17.008;2023-07-13T13:43:28;26.50;90.60
76203;DHT22;64985;46.364;17.008;2023-07-13T13:46:31;26.50;91.30
76203;DHT22;64985;46.364;17.008;2023-07-13T13:49:33;26.40;93.40
76203;DHT22;64985;46.364;17.008;2023-07-13T13:52:38;26.30;95.20
76203;DHT22;64985;46.364;17.008;2023-07-13T13:55:40;25.90;95.50
76203;DHT22;64985;46.364;17.008;2023-07-13T13:58:43;25.70;95.90
76203;DHT22;64985;46.364;17.008;2023-07-13T14:01:47;25.30;97.40
76203;DHT22;64985;46.364;17.008;2023-07-13T14:04:58;24.80;99.70
76203;DHT22;64985;46.364;17.008;2023-07-13T14:08:01;24.40;98.80
76203;DHT22;64985;46.364;17.008;2023-07-13T14:11:03;24.10;99.90
76203;DHT22;64985;46.364;17.008;2023-07-13T14:14:07;23.70;99.90
76203;DHT22;64985;46.364;17.008;2023-07-13T14:17:20;23.20;99.90
76203;DHT22;64985;46.364;17.008;2023-07-13T14:20:24;22.50;99.90
76203;DHT22;64985;46.364;17.008;2023-07-13T14:23:27;22.00;99.90
76203;DHT22;64985;46.364;17.008;2023-07-13T14:26:37;21.50;99.90
76203;DHT22;64985;46.364;17.008;2023-07-13T14:29:40;21.20;99.90
76203;DHT22;64985;46.364;17.008;2023-07-13T14:32:43;21.10;99.90
76203;DHT22;64985;46.364;17.008;2023-07-13T14:35:46;21.10;99.90
76203;DHT22;64985;46.364;17.008;2023-07-13T14:38:50;21.00;99.90
76203;DHT22;64985;46.364;17.008;2023-07-13T14:41:56;20.90;99.90
76203;DHT22;64985;46.364;17.008;2023-07-13T14:44:58;20.80;99.90
76203;DHT22;64985;46.364;17.008;2023-07-13T14:48:01;20.80;99.90
76203;DHT22;64985;46.364;17.008;2023-07-13T14:51:03;20.80;99.90
76203;DHT22;64985;46.364;17.008;2023-07-13T14:54:08;20.80;99.90
76203;DHT22;64985;46.364;17.008;2023-07-13T14:57:18;20.80;99.90
76203;DHT22;64985;46.364;17.008;2023-07-13T15:00:22;20.70;99.90
76203;DHT22;64985;46.364;17.008;2023-07-13T15:03:27;20.70;99.90
76203;DHT22;64985;46.364;17.008;2023-07-13T15:06:29;20.60;99.90
76203;DHT22;64985;46.364;17.008;2023-07-13T15:09:33;20.60;99.90
76203;DHT22;64985;46.364;17.008;2023-07-13T15:12:35;20.60;99.90
76203;DHT22;64985;46.364;17.008;2023-07-13T15:15:38;20.60;99.90
76203;DHT22;64985;46.364;17.008;2023-07-13T15:18:42;20.60;99.90
76203;DHT22;64985;46.364;17.008;2023-07-13T15:21:45;20.90;99.90
76203;DHT22;64985;46.364;17.008;2023-07-13T15:24:48;21.20;99.90
76203;DHT22;64985;46.364;17.008;2023-07-13T15:27:51;21.80;99.90
76203;DHT22;64985;46.364;17.008;2023-07-13T15:30:53;22.10;99.90
76203;DHT22;64985;46.364;17.008;2023-07-13T15:33:57;22.30;99.90
76203;DHT22;64985;46.364;17.008;2023-07-13T15:37:04;22.40;99.90
76203;DHT22;64985;46.364;17.008;2023-07-13T15:40:11;22.50;99.90
76203;DHT22;64985;46.364;17.008;2023-07-13T15:43:14;22.40;99.90
76203;DHT22;64985;46.364;17.008;2023-07-13T15:46:22;22.00;99.90
76203;DHT22;64985;46.364;17.008;2023-07-13T15:49:24;22.00;99.90
76203;DHT22;64985;46.364;17.008;2023-07-13T15:52:27;22.10;99.90
76203;DHT22;64985;46.364;17.008;2023-07-13T15:55:38;22.10;99.90
76203;DHT22;64985;46.364;17.008;2023-07-13T15:58:41;21.90;99.90
76203;DHT22;64985;46.364;17.008;2023-07-13T16:01:43;21.90;99.90
76203;DHT22;64985;46.364;17.008;2023-07-13T16:04:48;21.80;99.90
76203;DHT22;64985;46.364;17.008;2023-07-13T16:07:51;21.80;99.90
76203;DHT22;64985;46.364;17.008;2023-07-13T16:10:55;21.90;99.90
76203;DHT22;64985;46.364;17.008;2023-07-13T16:13:58;22.20;99.90
76203;DHT22;64985;46.364;17.008;2023-07-13T16:17:01;22.40;99.90
76203;DHT22;64985;46.364;17.008;2023-07-13T16:20:04;22.40;99.90
76203;DHT22;64985;46.364;17.008;2023-07-13T16:23:09;22.50;99.90
76203;DHT22;64985;46.364;17.008;2023-07-13T16:26:25;22.50;99.90
76203;DHT22;64985;46.364;17.008;2023-07-13T16:29:29;22.50;99.90
76203;DHT22;64985;46.364;17.008;2023-07-13T16:32:32;22.40;99.90
76203;DHT22;64985;46.364;17.008;2023-07-13T16:35:37;22.50;99.90
76203;DHT22;64985;46.364;17.008;2023-07-13T16:38:40;22.40;99.90
76203;DHT22;64985;46.364;17.008;2023-07-13T16:41:42;22.00;99.90
76203;DHT22;64985;46.364;17.008;2023-07-13T16:44:46;21.70;99.90
76203;DHT22;64985;46.364;17.008;2023-07-13T16:47:50;21.50;99.90
76203;DHT22;64985;46.364;17.008;2023-07-13T16:50:55;21.30;99.90
76203;DHT22;64985;46.364;17.008;2023-07-13T16:53:58;21.20;99.90
76203;DHT22;64985;46.364;17.008;2023-07-13T16:57:03;21.20;99.90
76203;DHT22;64985;46.364;17.008;2023-07-13T17:00:26;21.10;99.90
76203;DHT22;64985;46.364;17.008;2023-07-13T17:03:29;21.10;99.90
76203;DHT22;64985;46.364;17.008;2023-07-13T17:06:32;21.10;99.90
76203;DHT22;64985;46.364;17.008;2023-07-13T17:09:34;21.20;99.90
76203;DHT22;64985;46.364;17.008;2023-07-13T17:12:37;21.10;99.90
76203;DHT22;64985;46.364;17.008;2023-07-13T17:15:39;21.10;99.90
76203;DHT22;64985;46.364;17.008;2023-07-13T17:18:42;21.00;99.90
76203;DHT22;64985;46.364;17.008;2023-07-13T17:21:47;21.00;99.90
76203;DHT22;64985;46.364;17.008;2023-07-13T17:24:49;20.80;99.90
76203;DHT22;64985;46.364;17.008;2023-07-13T17:27:51;20.80;99.90
76203;DHT22;64985;46.364;17.008;2023-07-13T17:30:56;20.60;99.90
76203;DHT22;64985;46.364;17.008;2023-07-13T17:34:02;20.50;99.90
76203;DHT22;64985;46.364;17.008;2023-07-13T17:37:05;20.40;99.90
76203;DHT22;64985;46.364;17.008;2023-07-13T17:40:14;20.40;99.90
76203;DHT22;64985;46.364;17.008;2023-07-13T17:43:19;20.30;99.90
76203;DHT22;64985;46.364;17.008;2023-07-13T17:46:28;20.10;99.90
76203;DHT22;64985;46.364;17.008;2023-07-13T17:49:31;20.00;99.90
76203;DHT22;64985;46.364;17.008;2023-07-13T17:52:34;20.00;99.90
76203;DHT22;64985;46.364;17.008;2023-07-13T17:55:37;19.90;99.90
76203;DHT22;64985;46.364;17.008;2023-07-13T17:58:40;19.80;99.90
76203;DHT22;64985;46.364;17.008;2023-07-13T18:01:45;19.70;99.90
76203;DHT22;64985;46.364;17.008;2023-07-13T18:04:48;19.70;99.90
76203;DHT22;64985;46.364;17.008;2023-07-13T18:07:53;19.70;99.90
76203;DHT22;64985;46.364;17.008;2023-07-13T18:10:58;19.80;99.90
76203;DHT22;64985;46.364;17.008;2023-07-13T18:14:01;19.70;99.90
76203;DHT22;64985;46.364;17.008;2023-07-13T18:17:07;19.60;99.90
76203;DHT22;64985;46.364;17.008;2023-07-13T18:20:15;19.70;99.90
76203;DHT22;64985;46.364;17.008;2023-07-13T18:23:24;19.30;99.90
76203;DHT22;64985;46.364;17.008;2023-07-13T18:26:27;18.90;99.90
76203;DHT22;64985;46.364;17.008;2023-07-13T18:29:31;18.60;99.90
76203;DHT22;64985;46.364;17.008;2023-07-13T18:32:33;18.40;99.90
76203;DHT22;64985;46.364;17.008;2023-07-13T18:35:38;18.30;99.90
76203;DHT22;64985;46.364;17.008;2023-07-13T18:38:43;18.20;99.90
76203;DHT22;64985;46.364;17.008;2023-07-13T18:41:47;18.10;99.90
76203;DHT22;64985;46.364;17.008;2023-07-13T18:44:50;18.00;99.90
76203;DHT22;64985;46.364;17.008;2023-07-13T18:47:55;18.00;99.90
76203;DHT22;64985;46.364;17.008;2023-07-13T18:51:01;17.90;99.90
76203;DHT22;64985;46.364;17.008;2023-07-13T18:54:13;18.00;99.90
76203;DHT22;64985;46.364;17.008;2023-07-13T18:57:18;17.90;99.90
76203;DHT22;64985;46.364;17.008;2023-07-13T19:00:24;17.90;99.90
76203;DHT22;64985;46.364;17.008;2023-07-13T19:03:32;17.80;99.90
76203;DHT22;64985;46.364;17.008;2023-07-13T19:06:36;17.80;99.90
76203;DHT22;64985;46.364;17.008;2023-07-13T19:09:39;17.80;99.90
76203;DHT22;64985;46.364;17.008;2023-07-13T19:12:51;17.80;99.90
76203;DHT22;64985;46.364;17.008;2023-07-13T19:15:58;17.70;99.90
76203;DHT22;64985;46.364;17.008;2023-07-13T19:19:01;17.70;99.90
76203;DHT22;64985;46.364;17.008;2023-07-13T19:22:04;17.70;99.90
76203;DHT22;64985;46.364;17.008;2023-07-13T19:25:14;17.70;99.90
76203;DHT22;64985;46.364;17.008;2023-07-13T19:28:37;17.70;99.90
76203;DHT22;64985;46.364;17.008;2023-07-13T19:31:42;17.60;99.90
76203;DHT22;64985;46.364;17.008;2023-07-13T19:34:44;17.60;99.90
76203;DHT22;64985;46.364;17.008;2023-07-13T19:37:47;17.60;99.90
76203;DHT22;64985;46.364;17.008;2023-07-13T19:40:50;17.60;99.90
76203;DHT22;64985;46.364;17.008;2023-07-13T19:43:54;17.60;99.90
76203;DHT22;64985;46.364;17.008;2023-07-13T19:46:56;17.70;99.90
76203;DHT22;64985;46.364;17.008;2023-07-13T19:50:02;17.70;99.90
76203;DHT22;64985;46.364;17.008;2023-07-13T19:53:17;17.70;99.90
76203;DHT22;64985;46.364;17.008;2023-07-13T19:56:26;17.60;99.90
76203;DHT22;64985;46.364;17.008;2023-07-13T19:59:30;17.50;99.90
76203;DHT22;64985;46.364;17.008;2023-07-13T20:02:34;17.50;99.90
76203;DHT22;64985;46.364;17.008;2023-07-13T20:05:37;17.50;99.90
76203;DHT22;64985;46.364;17.008;2023-07-13T20:08:40;17.50;99.90
76203;DHT22;64985;46.364;17.008;2023-07-13T20:11:43;17.40;99.90
76203;DHT22;64985;46.364;17.008;2023-07-13T20:14:49;17.40;99.90
76203;DHT22;64985;46.364;17.008;2023-07-13T20:17:55;17.30;99.90
76203;DHT22;64985;46.364;17.008;2023-07-13T20:20:58;17.30;99.90
76203;DHT22;64985;46.364;17.008;2023-07-13T20:24:01;17.30;99.90
76203;DHT22;64985;46.364;17.008;2023-07-13T20:27:07;17.30;99.90
76203;DHT22;64985;46.364;17.008;2023-07-13T20:30:10;17.30;99.90
76203;DHT22;64985;46.364;17.008;2023-07-13T20:33:19;17.40;99.90
76203;DHT22;64985;46.364;17.008;2023-07-13T20:36:23;17.30;99.90
76203;DHT22;64985;46.364;17.008;2023-07-13T20:39:26;17.30;99.90
76203;DHT22;64985;46.364;17.008;2023-07-13T20:42:28;17.30;99.90
76203;DHT22;64985;46.364;17.008;2023-07-13T20:45:33;17.30;99.90
76203;DHT22;64985;46.364;17.008;2023-07-13T20:48:38;17.30;99.90
76203;DHT22;64985;46.364;17.008;2023-07-13T20:51:41;17.30;99.90
76203;DHT22;64985;46.364;17.008;2023-07-13T20:54:45;17.40;99.90
76203;DHT22;64985;46.364;17.008;2023-07-13T20:57:49;17.30;99.90
76203;DHT22;64985;46.364;17.008;2023-07-13T21:00:51;17.30;99.90
76203;DHT22;64985;46.364;17.008;2023-07-13T21:04:02;17.20;99.90
76203;DHT22;64985;46.364;17.008;2023-07-13T21:07:05;17.20;99.90
76203;DHT22;64985;46.364;17.008;2023-07-13T21:10:20;17.20;99.90
76203;DHT22;64985;46.364;17.008;2023-07-13T21:13:23;17.10;99.90
76203;DHT22;64985;46.364;17.008;2023-07-13T21:16:27;17.10;99.90
76203;DHT22;64985;46.364;17.008;2023-07-13T21:19:30;17.10;99.90
76203;DHT22;64985;46.364;17.008;2023-07-13T21:22:33;17.20;99.90
76203;DHT22;64985;46.364;17.008;2023-07-13T21:25:35;17.10;99.90
76203;DHT22;64985;46.364;17.008;2023-07-13T21:28:43;17.00;99.90
76203;DHT22;64985;46.364;17.008;2023-07-13T21:31:45;17.00;99.90
76203;DHT22;64985;46.364;17.008;2023-07-13T21:34:47;16.90;99.90
76203;DHT22;64985;46.364;17.008;2023-07-13T21:37:51;16.90;99.90
76203;DHT22;64985;46.364;17.008;2023-07-13T21:40:58;16.80;99.90
76203;DHT22;64985;46.364;17.008;2023-07-13T21:44:02;16.80;99.90
76203;DHT22;64985;46.364;17.008;2023-07-13T21:47:12;16.70;99.90
76203;DHT22;64985;46.364;17.008;2023-07-13T21:50:14;16.70;99.90
76203;DHT22;64985;46.364;17.008;2023-07-13T21:53:30;16.70;99.90
76203;DHT22;64985;46.364;17.008;2023-07-13T21:56:32;16.60;99.90
76203;DHT22;64985;46.364;17.008;2023-07-13T21:59:34;16.60;99.90
76203;DHT22;64985;46.364;17.008;2023-07-13T22:02:37;16.50;99.90
76203;DHT22;64985;46.364;17.008;2023-07-13T22:05:40;16.50;99.90
76203;DHT22;64985;46.364;17.008;2023-07-13T22:08:43;16.40;99.90
76203;DHT22;64985;46.364;17.008;2023-07-13T22:11:45;16.40;99.90
76203;DHT22;64985;46.364;17.008;2023-07-13T22:14:47;16.30;99.90
76203;DHT22;64985;46.364;17.008;2023-07-13T22:17:49;16.30;99.90
76203;DHT22;64985;46.364;17.008;2023-07-13T22:20:52;16.30;99.90
76203;DHT22;64985;46.364;17.008;2023-07-13T22:23:56;16.30;99.90
76203;DHT22;64985;46.364;17.008;2023-07-13T22:26:58;16.40;99.90
76203;DHT22;64985;46.364;17.008;2023-07-13T22:30:00;16.40;99.90
76203;DHT22;64985;46.364;17.008;2023-07-13T22:33:11;16.40;99.90
76203;DHT22;64985;46.364;17.008;2023-07-13T22:36:15;16.40;99.90
76203;DHT22;64985;46.364;17.008;2023-07-13T22:39:24;16.50;99.90
76203;DHT22;64985;46.364;17.008;2023-07-13T22:42:28;16.60;99.90
76203;DHT22;64985;46.364;17.008;2023-07-13T22:45:30;16.60;99.90
76203;DHT22;64985;46.364;17.008;2023-07-13T22:48:39;16.60;99.90
76203;DHT22;64985;46.364;17.008;2023-07-13T22:51:42;16.60;99.90
76203;DHT22;64985;46.364;17.008;2023-07-13T22:54:44;16.60;99.90
76203;DHT22;64985;46.364;17.008;2023-07-13T22:57:48;16.70;99.90
76203;DHT22;64985;46.364;17.008;2023-07-13T23:00:57;16.70;99.90
76203;DHT22;64985;46.364;17.008;2023-07-13T23:04:01;16.70;99.90
76203;DHT22;64985;46.364;17.008;2023-07-13T23:07:03;16.70;99.90
76203;DHT22;64985;46.364;17.008;2023-07-13T23:10:14;16.70;99.90
76203;DHT22;64985;46.364;17.008;2023-07-13T23:13:16;16.80;99.90
76203;DHT22;64985;46.364;17.008;2023-07-13T23:16:20;16.80;99.90
76203;DHT22;64985;46.364;17.008;2023-07-13T23:19:29;16.80;99.90
76203;DHT22;64985;46.364;17.008;2023-07-13T23:22:31;16.80;99.90
76203;DHT22;64985;46.364;17.008;2023-07-13T23:25:34;16.80;99.90
76203;DHT22;64985;46.364;17.008;2023-07-13T23:28:36;16.90;99.90
76203;DHT22;64985;46.364;17.008;2023-07-13T23:31:38;16.90;99.90
76203;DHT22;64985;46.364;17.008;2023-07-13T23:34:41;16.80;99.90
76203;DHT22;64985;46.364;17.008;2023-07-13T23:37:44;16.80;99.90